Time;durP1;ratioP1;P1;durP2;ratioP2;P2;SDS_P1;SDS_P2;PMS_P1;PMS_P2;Temp;Humidity;BMP_temperature;BMP_pressure;BME280_temperature;BME280_humidity;BME280_pressure;Samples;Min_cycle;Max_cycle;Signal;HPM_P1;HPM_P2
2021/11/24 00:02:16;;;;;;;40.13;20.30;;;;;;;5.80;100.00;98731.50;4947028;29;20559;-85
2021/11/24 00:04:43;;;;;;;39.35;21.13;;;;;;;5.71;100.00;98716.06;4928069;29;20488;-87
2021/11/24 00:07:12;;;;;;;38.90;21.45;;;;;;;5.77;100.00;98732.00;4961175;29;20059;-86
2021/11/24 00:09:38;;;;;;;38.22;20.63;;;;;;;5.78;100.00;98720.16;4958541;29;20102;-84
2021/11/24 00:12:05;;;;;;;35.30;20.50;;;;;;;5.84;100.00;98737.13;4959009;29;20058;-85
2021/11/24 00:14:33;;;;;;;37.15;20.92;;;;;;;5.92;100.00;98726.75;4940296;29;20051;-85
2021/11/24 00:16:59;;;;;;;37.15;20.13;;;;;;;5.58;100.00;98698.53;4956650;29;20043;-85
2021/11/24 00:19:26;;;;;;;35.97;19.88;;;;;;;5.68;100.00;98710.16;4962658;29;20078;-86
2021/11/24 00:21:52;;;;;;;38.08;20.05;;;;;;;5.65;100.00;98677.66;4958517;29;20057;-86
2021/11/24 00:24:21;;;;;;;35.00;19.55;;;;;;;5.73;100.00;98706.69;4940634;29;20055;-86
2021/11/24 00:26:48;;;;;;;33.33;18.63;;;;;;;5.76;100.00;98700.81;4942636;29;20078;-85
2021/11/24 00:29:14;;;;;;;31.55;17.50;;;;;;;5.85;100.00;98710.06;4960463;29;20058;-86
2021/11/24 00:31:41;;;;;;;32.15;16.45;;;;;;;5.62;100.00;98692.41;4955819;29;20459;-86
2021/11/24 00:34:08;;;;;;;34.40;17.88;;;;;;;5.68;100.00;98709.34;4956106;29;20106;-86
2021/11/24 00:36:35;;;;;;;32.88;17.23;;;;;;;5.56;100.00;98681.84;4955809;29;20426;-84
2021/11/24 00:39:02;;;;;;;38.10;18.75;;;;;;;5.55;100.00;98686.41;4939056;29;20051;-84
2021/11/24 00:41:29;;;;;;;33.28;17.10;;;;;;;5.49;100.00;98705.44;4939059;29;20201;-84
2021/11/24 00:43:55;;;;;;;31.67;17.55;;;;;;;5.29;100.00;98683.78;4956396;29;20342;-84
2021/11/24 00:46:22;;;;;;;36.83;17.65;;;;;;;5.30;100.00;98685.38;4939654;29;20051;-84
2021/11/24 00:48:49;;;;;;;31.17;16.35;;;;;;;5.19;100.00;98657.63;4939944;29;20055;-86
2021/11/24 00:51:15;;;;;;;31.85;16.83;;;;;;;5.43;100.00;98693.03;4955262;29;20047;-84
2021/11/24 00:53:42;;;;;;;32.00;16.50;;;;;;;5.53;100.00;98696.59;4955976;29;20098;-84
2021/11/24 00:56:08;;;;;;;30.55;15.90;;;;;;;5.71;100.00;98708.84;4937534;29;20078;-84
2021/11/24 00:58:35;;;;;;;30.92;16.38;;;;;;;5.60;100.00;98705.25;4938862;29;20624;-84
2021/11/24 01:01:03;;;;;;;29.58;15.18;;;;;;;5.72;100.00;98702.41;4938778;29;20121;-85
2021/11/24 01:03:30;;;;;;;31.52;16.27;;;;;;;5.65;100.00;98694.53;4956453;29;20106;-85
2021/11/24 01:05:56;;;;;;;30.85;16.60;;;;;;;5.75;100.00;98699.22;4939799;29;20075;-84
2021/11/24 01:08:23;;;;;;;32.67;16.98;;;;;;;5.62;100.00;98680.84;4956971;29;20428;-84
2021/11/24 01:10:50;;;;;;;33.10;17.38;;;;;;;5.65;100.00;98683.81;4938965;29;20553;-85
2021/11/24 01:13:18;;;;;;;28.60;15.15;;;;;;;5.78;100.00;98676.38;4956075;29;20067;-85
2021/11/24 01:15:45;;;;;;;28.00;15.20;;;;;;;5.81;100.00;98682.03;4956315;29;20051;-86
2021/11/24 01:18:12;;;;;;;27.70;14.93;;;;;;;5.83;100.00;98689.84;4956946;29;20055;-85
2021/11/24 01:20:39;;;;;;;29.95;15.10;;;;;;;5.92;100.00;98697.19;4956373;29;20083;-86
2021/11/24 01:23:06;;;;;;;29.27;15.05;;;;;;;5.70;100.00;98658.06;4939477;29;20142;-85
2021/11/24 01:25:33;;;;;;;29.25;15.40;;;;;;;5.82;100.00;98672.09;4956403;29;20047;-86
2021/11/24 01:28:00;;;;;;;28.75;15.50;;;;;;;5.68;100.00;98664.50;4939280;29;20054;-86
2021/11/24 01:30:26;;;;;;;26.48;14.52;;;;;;;5.82;100.00;98680.16;4965931;29;20059;-86
2021/11/24 01:32:53;;;;;;;27.63;14.93;;;;;;;5.84;100.00;98681.53;4957496;29;20058;-86
2021/11/24 01:35:20;;;;;;;28.83;15.18;;;;;;;5.90;100.00;98682.41;4939386;29;20063;-86
2021/11/24 01:37:46;;;;;;;30.08;14.98;;;;;;;5.61;100.00;98660.41;4955072;29;20055;-86
2021/11/24 01:40:13;;;;;;;31.80;16.75;;;;;;;5.81;100.00;98687.41;4937602;29;20051;-85
2021/11/24 01:42:41;;;;;;;32.47;16.48;;;;;;;5.58;100.00;98655.53;4955033;29;20091;-86
2021/11/24 01:45:10;;;;;;;36.08;18.27;;;;;;;5.48;100.00;98656.28;4954138;29;20113;-87
2021/11/24 01:47:37;;;;;;;35.95;17.65;;;;;;;5.75;100.00;98683.09;4939360;29;20106;-86
2021/11/24 01:50:06;;;;;;;33.33;17.67;;;;;;;5.76;100.00;98687.38;4953752;29;20071;-86
2021/11/24 01:52:33;;;;;;;34.25;17.45;;;;;;;5.65;100.00;98688.38;4953202;29;20095;-85
2021/11/24 01:55:01;;;;;;;37.15;18.33;;;;;;;5.60;100.00;98681.06;4947854;29;20142;-87
2021/11/24 01:57:28;;;;;;;37.08;19.25;;;;;;;5.46;100.00;98669.16;4924037;29;20055;-86
2021/11/24 01:59:56;;;;;;;40.55;18.90;;;;;;;5.63;100.00;98677.06;4932471;29;20052;-86
2021/11/24 02:02:23;;;;;;;36.28;18.25;;;;;;;5.41;100.00;98641.47;4939180;29;20047;-86
2021/11/24 02:04:50;;;;;;;35.38;18.15;;;;;;;5.56;100.00;98652.31;4954882;29;20586;-86
2021/11/24 02:07:17;;;;;;;37.55;18.80;;;;;;;5.34;100.00;98630.91;4938212;29;20603;-86
2021/11/24 02:09:45;;;;;;;32.08;17.65;;;;;;;5.18;100.00;98628.38;4955949;29;20078;-85
2021/11/24 02:12:15;;;;;;;36.03;17.90;;;;;;;5.42;100.00;98667.25;4955975;29;20098;-83
2021/11/24 02:14:43;;;;;;;38.28;19.48;;;;;;;5.51;100.00;98665.69;4956187;29;20055;-85
2021/11/24 02:17:13;;;;;;;40.63;19.35;;;;;;;5.45;100.00;98658.66;4938514;29;20086;-85
2021/11/24 02:19:40;;;;;;;39.67;20.50;;;;;;;5.29;100.00;98657.72;4941459;29;20078;-84
2021/11/24 02:22:07;;;;;;;35.33;19.15;;;;;;;5.28;100.00;98623.91;4945813;29;20051;-86
2021/11/24 02:24:36;;;;;;;36.65;19.08;;;;;;;5.19;100.00;98643.44;4958006;29;20611;-87
2021/11/24 02:27:07;;;;;;;41.22;19.60;;;;;;;5.21;100.00;98646.66;4960034;29;20043;-84
2021/11/24 02:29:34;;;;;;;35.08;18.02;;;;;;;5.18;100.00;98658.72;4959756;29;20236;-86
2021/11/24 02:32:43;;;;;;;;;;;;;;;;;;;;;
2021/11/24 02:36:22;;;;;;;;;;;;;;;;;;;;;
2021/11/24 02:39:54;;;;;;;;;;;;;;;;;;;;;
2021/11/24 02:42:53;;;;;;;33.00;16.98;;;;;;;4.96;100.00;98617.72;4970089;28;20062;-80
2021/11/24 02:45:36;;;;;;;37.58;17.52;;;;;;;4.92;100.00;98614.75;4981123;28;20094;-81
2021/11/24 02:49:17;;;;;;;33.43;17.80;;;;;;;4.88;100.00;98610.13;4984202;28;20118;-78
2021/11/24 02:52:39;;;;;;;34.20;17.23;;;;;;;4.89;100.00;98606.38;4972977;28;20057;-81
2021/11/24 02:55:08;;;;;;;36.60;17.85;;;;;;;4.99;100.00;98623.38;4937361;28;20047;-79
2021/11/24 02:58:09;;;;;;;34.05;16.77;;;;;;;4.86;100.00;98605.03;4984351;28;20043;-80
2021/11/24 03:00:41;;;;;;;31.80;16.13;;;;;;;4.87;100.00;98609.34;4967789;28;20068;-81
2021/11/24 03:03:22;;;;;;;30.30;16.33;;;;;;;4.98;100.00;98616.38;4984922;28;20086;-81
2021/11/24 03:06:06;;;;;;;29.55;15.45;;;;;;;4.84;100.00;98604.47;4980825;28;20166;-81
2021/11/24 03:08:42;;;;;;;31.55;15.30;;;;;;;4.98;100.00;98640.53;4979752;28;20051;-81
2021/11/24 03:11:22;;;;;;;29.27;15.30;;;;;;;4.84;100.00;98588.38;4957534;28;20117;-80
2021/11/24 03:14:01;;;;;;;31.52;16.20;;;;;;;5.03;100.00;98619.13;4980272;28;20047;-80
2021/11/24 03:17:27;;;;;;;;;;;;;;;;;;;;;
2021/11/24 03:22:36;;;;;;;26.08;13.80;;;;;;;5.10;100.00;98618.94;4993021;28;20140;-82
2021/11/24 03:25:05;;;;;;;30.48;15.25;;;;;;;5.20;100.00;98619.00;4977119;28;20073;-84
2021/11/24 03:27:34;;;;;;;26.75;13.68;;;;;;;5.19;100.00;98608.53;4995062;28;20092;-82
2021/11/24 03:30:05;;;;;;;26.38;13.32;;;;;;;5.18;100.00;98613.09;4978114;28;20121;-84
2021/11/24 03:32:31;;;;;;;26.50;12.63;;;;;;;5.05;100.00;98589.38;4995276;28;20053;-84
2021/11/24 03:39:52;;;;;;;27.27;12.90;;;;;;;4.93;100.00;98565.38;4941270;28;20050;-80
2021/11/24 03:43:07;;;;;;;26.67;13.00;;;;;;;4.98;100.00;98561.94;4882261;29;20060;-79
2021/11/24 03:46:45;;;;;;;25.13;12.77;;;;;;;4.84;100.00;98555.38;4884110;29;20064;-81
2021/11/24 03:57:26;;;;;;;20.60;11.30;;;;;;;5.07;100.00;98575.69;4925494;28;20042;-80
2021/11/24 04:04:42;;;;;;;;;;;;;;;;;;;;;
2021/11/24 04:10:52;;;;;;;22.15;11.23;;;;;;;5.12;100.00;98591.81;4954838;29;20065;-86
2021/11/24 04:13:18;;;;;;;20.10;10.70;;;;;;;5.13;100.00;98585.41;4956520;29;20051;-87
2021/11/24 04:15:45;;;;;;;18.50;9.70;;;;;;;5.12;100.00;98578.41;4958199;28;20166;-83
2021/11/24 04:18:12;;;;;;;21.23;10.18;;;;;;;5.12;100.00;98578.41;4956787;29;20082;-87
2021/11/24 04:20:38;;;;;;;20.42;9.70;;;;;;;5.18;100.00;98591.63;4971745;28;20075;-81
2021/11/24 04:52:39;;;;;;;16.67;8.75;;;;;;;5.36;100.00;98576.97;4976547;28;20054;-84
2021/11/24 04:55:06;;;;;;;19.40;9.73;;;;;;;5.37;100.00;98574.03;4976379;28;20306;-86
2021/11/24 04:57:32;;;;;;;18.98;9.25;;;;;;;5.38;100.00;98569.47;4974968;28;20046;-87
2021/11/24 04:59:59;;;;;;;20.73;8.75;;;;;;;5.43;100.00;98582.94;4974050;28;20412;-87
2021/11/24 05:02:26;;;;;;;16.63;8.60;;;;;;;5.48;100.00;98567.66;4973694;28;20459;-86
2021/11/24 05:10:19;;;;;;;18.75;9.60;;;;;;;5.46;100.00;98569.81;4966089;23;20039;-78
2021/11/24 05:17:31;;;;;;;18.88;9.13;;;;;;;5.54;100.00;98560.44;4938451;29;20040;-78
2021/11/24 05:20:40;;;;;;;16.33;8.30;;;;;;;5.42;100.00;98544.53;4912401;29;20115;-79
2021/11/24 05:24:22;;;;;;;;;;;;;;;;;;;;;
2021/11/24 05:27:18;;;;;;;19.55;9.23;;;;;;;5.51;100.00;98564.47;4859137;29;20156;-78
2021/11/24 05:29:45;;;;;;;17.63;9.27;;;;;;;5.49;100.00;98576.53;4877462;29;20666;-78
2021/11/24 05:32:12;;;;;;;21.50;8.98;;;;;;;5.48;100.00;98575.72;4878243;29;20064;-78
2021/11/24 05:34:39;;;;;;;18.08;8.98;;;;;;;5.52;100.00;98576.03;4877449;29;20060;-77
2021/11/24 05:37:07;;;;;;;18.23;9.68;;;;;;;5.38;100.00;98572.16;4860997;29;20081;-77
2021/11/24 05:39:35;;;;;;;19.77;9.90;;;;;;;5.49;100.00;98565.78;4953424;23;20641;-80
2021/11/24 05:43:03;;;;;;;16.67;9.02;;;;;;;5.44;100.00;98563.91;4976246;28;20459;-78
2021/11/24 05:51:46;;;;;;;;;;;;;;;;;;;;;
2021/11/24 05:59:09;;;;;;;;;;;;;;;;;;;;;
2021/11/24 06:02:46;;;;;;;24.23;12.55;;;;;;;6.05;100.00;98556.16;4805807;29;20065;-78
2021/11/24 06:06:23;;;;;;;28.20;12.23;;;;;;;5.95;100.00;98566.88;4832138;29;20106;-79
2021/11/24 06:23:28;;;;;;;24.83;12.27;;;;;;;6.19;100.00;98546.56;4928228;29;20047;-83
2021/11/24 06:26:25;;;;;;;18.35;8.95;;;;;;;5.99;100.00;98560.72;4941920;29;20060;-83
2021/11/24 06:29:18;;;;;;;20.75;9.73;;;;;;;5.79;100.00;98527.53;4934709;29;20044;-83
2021/11/24 06:32:03;;;;;;;21.85;10.45;;;;;;;5.87;100.00;98546.69;4915819;29;20060;-82
2021/11/24 06:34:47;;;;;;;19.77;10.20;;;;;;;5.82;100.00;98535.88;4936451;29;20413;-82
2021/11/24 06:37:24;;;;;;;16.70;9.30;;;;;;;5.88;100.00;98542.94;4928678;29;20120;-83
2021/11/24 06:40:12;;;;;;;20.95;9.95;;;;;;;6.05;100.00;98556.97;4912633;29;20047;-82
2021/11/24 06:42:59;;;;;;;20.02;9.45;;;;;;;5.98;100.00;98526.84;4921954;29;20492;-81
2021/11/24 06:45:26;;;;;;;18.92;9.68;;;;;;;5.75;100.00;98529.13;4927305;29;20139;-81
2021/11/24 06:47:53;;;;;;;21.77;10.43;;;;;;;5.95;100.00;98535.44;4912781;29;20055;-82
2021/11/24 06:50:20;;;;;;;27.23;14.27;;;;;;;6.05;100.00;98545.41;4913429;29;20425;-81
2021/11/24 06:52:48;;;;;;;31.40;15.57;;;;;;;6.03;100.00;98555.63;4927141;29;20589;-82
2021/11/24 06:55:15;;;;;;;26.42;14.05;;;;;;;6.05;100.00;98540.03;4927277;29;20064;-82
2021/11/24 06:57:42;;;;;;;27.20;13.95;;;;;;;6.06;100.00;98541.66;4911898;29;20055;-82
2021/11/24 07:00:10;;;;;;;20.23;10.75;;;;;;;5.97;100.00;98551.28;4912337;29;20454;-81
2021/11/24 07:02:37;;;;;;;23.77;11.00;;;;;;;5.96;100.00;98539.72;4928212;29;20056;-81
2021/11/24 07:05:11;;;;;;;19.42;11.20;;;;;;;6.01;100.00;98547.03;4922737;29;20100;-82
2021/11/24 07:07:41;;;;;;;21.63;10.65;;;;;;;5.92;100.00;98545.91;4919294;29;20060;-81
2021/11/24 07:10:09;;;;;;;18.85;10.05;;;;;;;6.12;100.00;98562.09;4910999;29;20074;-82
2021/11/24 07:12:36;;;;;;;20.88;10.13;;;;;;;5.94;100.00;98549.13;4919653;29;20044;-81
2021/11/24 07:15:04;;;;;;;23.48;10.50;;;;;;;6.01;100.00;98539.75;4911331;29;20049;-82
2021/11/24 07:17:38;;;;;;;33.92;13.63;;;;;;;6.20;100.00;98567.78;4923591;29;20493;-81
2021/11/24 07:20:05;;;;;;;29.85;14.70;;;;;;;6.14;100.00;98558.06;4911891;29;20059;-81
2021/11/24 07:22:34;;;;;;;25.13;14.30;;;;;;;6.27;100.00;98557.59;4915350;29;20068;-81
2021/11/24 07:25:03;;;;;;;27.13;15.18;;;;;;;6.11;100.00;98530.94;4900613;29;20060;-81
2021/11/24 07:27:30;;;;;;;29.92;14.57;;;;;;;6.24;100.00;98547.38;4929349;29;20493;-80
2021/11/24 07:29:57;;;;;;;29.25;14.82;;;;;;;6.26;100.00;98542.53;4914105;29;20048;-80
2021/11/24 07:32:27;;;;;;;28.92;15.07;;;;;;;6.35;100.00;98544.72;4921482;29;20069;-84
2021/11/24 07:34:54;;;;;;;25.85;13.65;;;;;;;6.31;100.00;98551.69;4930646;29;20032;-82
2021/11/24 07:37:25;;;;;;;27.55;13.98;;;;;;;6.19;100.00;98541.97;4932170;29;20493;-79
2021/11/24 07:39:52;;;;;;;28.90;14.10;;;;;;;6.37;100.00;98558.69;4914661;29;20143;-81
2021/11/24 07:42:19;;;;;;;25.40;12.82;;;;;;;6.26;100.00;98534.47;4929932;29;20048;-80
2021/11/24 07:44:46;;;;;;;26.02;12.90;;;;;;;6.43;100.00;98533.41;4929361;29;20060;-81
2021/11/24 07:47:13;;;;;;;25.90;13.13;;;;;;;6.58;100.00;98544.22;4915210;29;20131;-79
2021/11/24 07:49:40;;;;;;;26.30;13.30;;;;;;;6.50;100.00;98534.00;4929869;29;20060;-79
2021/11/24 07:52:07;;;;;;;23.23;11.75;;;;;;;6.39;100.00;98535.03;4922771;29;20070;-82
2021/11/24 07:54:35;;;;;;;23.38;11.63;;;;;;;6.34;100.00;98551.16;4921311;29;20517;-81
2021/11/24 07:57:02;;;;;;;21.70;11.40;;;;;;;6.14;100.00;98525.03;4943001;29;20044;-81
2021/11/24 07:59:31;;;;;;;23.83;12.52;;;;;;;6.26;100.00;98523.72;4932919;29;20056;-81
2021/11/24 08:01:58;;;;;;;23.67;11.02;;;;;;;6.35;100.00;98536.66;4933410;29;20040;-83
2021/11/24 08:04:28;;;;;;;25.10;12.50;;;;;;;6.23;100.00;98532.31;4932395;29;20115;-82
2021/11/24 08:06:59;;;;;;;29.35;12.50;;;;;;;6.32;100.00;98543.38;4935315;29;20075;-82
2021/11/24 08:09:27;;;;;;;21.42;11.70;;;;;;;6.26;100.00;98544.41;4919289;29;20076;-81
2021/11/24 08:11:58;;;;;;;22.80;11.98;;;;;;;6.15;100.00;98532.81;4917122;29;20055;-80
2021/11/24 08:14:29;;;;;;;23.90;12.32;;;;;;;5.91;100.00;98515.53;4921818;29;20568;-82
2021/11/24 08:16:59;;;;;;;24.35;11.77;;;;;;;6.06;100.00;98520.97;4898390;29;20074;-81
2021/11/24 08:19:26;;;;;;;26.65;12.48;;;;;;;6.12;100.00;98519.09;4917035;29;20048;-81
2021/11/24 08:21:53;;;;;;;22.23;11.48;;;;;;;6.29;100.00;98519.69;4917229;29;20476;-81
2021/11/24 08:24:22;;;;;;;22.80;11.23;;;;;;;6.20;100.00;98510.50;4917052;29;20048;-81
2021/11/24 08:26:49;;;;;;;22.38;10.63;;;;;;;6.09;100.00;98507.00;4911841;29;20057;-82
2021/11/24 08:29:19;;;;;;;16.95;9.50;;;;;;;5.94;100.00;98500.75;4921151;29;20043;-81
2021/11/24 08:31:48;;;;;;;20.17;10.50;;;;;;;6.07;100.00;98516.38;4920741;29;20066;-80
2021/11/24 08:34:16;;;;;;;22.17;10.05;;;;;;;6.00;100.00;98505.09;4936949;29;20044;-82
2021/11/24 08:36:42;;;;;;;21.10;10.02;;;;;;;6.21;100.00;98534.47;4945836;28;20118;-81
2021/11/24 08:39:10;;;;;;;20.58;10.68;;;;;;;6.24;100.00;98528.56;4920908;29;20055;-81
2021/11/24 08:41:45;;;;;;;19.20;10.25;;;;;;;6.44;100.00;98526.97;4936512;29;20062;-82
2021/11/24 08:44:13;;;;;;;18.95;10.43;;;;;;;6.58;100.00;98523.50;4935680;29;20077;-81
2021/11/24 08:46:40;;;;;;;22.23;9.60;;;;;;;6.68;100.00;98520.84;4928578;29;20138;-81
2021/11/24 08:49:07;;;;;;;17.42;9.13;;;;;;;6.64;100.00;98502.78;4931465;29;20052;-81
2021/11/24 08:51:36;;;;;;;20.30;9.57;;;;;;;6.52;100.00;98500.38;4917130;29;20151;-81
2021/11/24 08:54:05;;;;;;;22.45;10.05;;;;;;;6.74;100.00;98527.81;4918310;29;20044;-81
2021/11/24 08:56:34;;;;;;;25.42;11.55;;;;;;;6.75;100.00;98517.88;4919178;29;20064;-82
2021/11/24 08:59:08;;;;;;;24.75;11.30;;;;;;;6.87;100.00;98529.16;4918279;29;20048;-81
2021/11/24 09:01:37;;;;;;;21.20;10.30;;;;;;;6.79;100.00;98506.28;4944477;29;20083;-81
2021/11/24 09:04:08;;;;;;;23.25;10.50;;;;;;;6.75;100.00;98509.81;4945042;29;20076;-81
2021/11/24 09:06:35;;;;;;;27.08;11.55;;;;;;;6.74;100.00;98529.69;4942940;29;20063;-81
2021/11/24 09:09:05;;;;;;;21.58;11.30;;;;;;;6.48;100.00;98523.47;4936601;29;20063;-81
2021/11/24 09:11:32;;;;;;;27.52;13.82;;;;;;;6.25;100.00;98522.09;4940047;29;20115;-82
2021/11/24 09:13:59;;;;;;;25.67;14.00;;;;;;;6.24;100.00;98507.06;4943095;29;20059;-81
2021/11/24 09:16:29;;;;;;;27.63;14.10;;;;;;;6.34;100.00;98503.56;4942191;29;20079;-81
2021/11/24 09:18:56;;;;;;;25.70;12.73;;;;;;;6.15;100.00;98511.31;4924058;29;20075;-82
2021/11/24 09:21:24;;;;;;;22.25;12.13;;;;;;;6.31;100.00;98514.03;4933827;29;20068;-80
2021/11/24 09:23:52;;;;;;;24.60;12.48;;;;;;;6.33;100.00;98518.06;4918343;29;20059;-81
2021/11/24 09:26:42;;;;;;;22.00;11.48;;;;;;;6.31;100.00;98514.03;4916734;29;20056;-80
2021/11/24 09:29:07;;;;;;;22.08;11.48;;;;;;;6.30;100.00;98507.06;4921940;29;20534;-82
2021/11/24 09:31:37;;;;;;;22.67;11.57;;;;;;;6.15;100.00;98491.69;4918681;29;20155;-81
2021/11/24 09:34:04;;;;;;;20.42;10.48;;;;;;;6.23;100.00;98496.53;4919194;29;20142;-82
2021/11/24 09:36:35;;;;;;;21.48;11.65;;;;;;;6.19;100.00;98498.16;4937677;29;20151;-82
2021/11/24 09:39:02;;;;;;;20.55;10.23;;;;;;;6.24;100.00;98485.53;4937365;29;20067;-81
2021/11/24 09:41:32;;;;;;;20.45;10.65;;;;;;;6.24;100.00;98485.53;4949876;29;20484;-80
2021/11/24 09:44:02;;;;;;;22.20;10.85;;;;;;;6.31;100.00;98500.59;4919899;29;20055;-83
2021/11/24 09:46:30;;;;;;;20.30;9.98;;;;;;;6.28;100.00;98481.25;4920040;29;20055;-81
2021/11/24 09:49:02;;;;;;;20.20;9.82;;;;;;;6.56;100.00;98497.94;4919838;29;20133;-81
2021/11/24 09:51:31;;;;;;;19.98;10.35;;;;;;;6.59;100.00;98486.66;4920329;29;20055;-81
2021/11/24 09:54:00;;;;;;;21.02;9.85;;;;;;;6.73;100.00;98482.38;4919059;29;20516;-81
2021/11/24 09:56:26;;;;;;;26.05;12.95;;;;;;;6.75;100.00;98472.13;4907851;29;20059;-81
2021/11/24 09:59:15;;;;;;;35.35;14.30;;;;;;;6.85;100.00;98474.81;4917683;29;20080;-80
2021/11/24 10:01:42;;;;;;;32.25;14.07;;;;;;;7.09;100.00;98478.56;4916889;29;20060;-80
2021/11/24 10:04:10;;;;;;;24.17;13.82;;;;;;;7.13;100.00;98465.34;4915843;29;20093;-81
2021/11/24 10:06:39;;;;;;;23.13;12.25;;;;;;;7.09;100.00;98448.97;4917197;29;20055;-81
2021/11/24 10:09:09;;;;;;;24.60;12.45;;;;;;;7.10;100.00;98439.78;4915654;29;20048;-81
2021/11/24 10:11:37;;;;;;;21.95;10.90;;;;;;;7.41;100.00;98451.28;4916472;29;20059;-81
2021/11/24 10:14:04;;;;;;;20.80;11.82;;;;;;;7.44;100.00;98458.81;4915895;29;20056;-80
2021/11/24 10:16:33;;;;;;;20.20;11.60;;;;;;;7.28;100.00;98443.78;4915423;29;20052;-82
2021/11/24 10:19:05;;;;;;;24.95;11.80;;;;;;;7.31;100.00;98459.38;4900595;29;20048;-81
2021/11/24 10:21:35;;;;;;;23.80;12.88;;;;;;;7.39;100.00;98439.97;4916157;29;20067;-82
2021/11/24 10:24:06;;;;;;;24.90;12.73;;;;;;;7.29;100.00;98445.41;4894864;29;20177;-82
2021/11/24 10:26:35;;;;;;;25.70;12.77;;;;;;;7.42;100.00;98429.47;4920782;29;20056;-83
2021/11/24 10:29:10;;;;;;;25.77;12.35;;;;;;;7.28;100.00;98449.16;4919519;29;20139;-83
2021/11/24 10:31:40;;;;;;;23.42;12.40;;;;;;;7.16;100.00;98408.28;4930581;29;20043;-83
2021/11/24 10:34:21;;;;;;;24.27;12.18;;;;;;;7.36;100.00;98425.16;4920430;29;20520;-82
2021/11/24 10:37:11;;;;;;;23.80;11.98;;;;;;;7.32;100.00;98413.34;4903247;29;20048;-82
2021/11/24 10:39:53;;;;;;;24.08;12.25;;;;;;;7.37;100.00;98420.59;4918849;29;20226;-82
2021/11/24 10:42:38;;;;;;;22.10;11.95;;;;;;;7.08;100.00;98412.34;4903949;29;20131;-82
2021/11/24 10:45:05;;;;;;;22.95;11.15;;;;;;;7.30;100.00;98417.41;4918869;29;20573;-83
2021/11/24 10:47:33;;;;;;;23.08;11.93;;;;;;;7.25;100.00;98407.44;4915839;29;20055;-83
2021/11/24 10:50:04;;;;;;;26.35;12.50;;;;;;;7.36;100.00;98397.44;4917670;29;20068;-82
2021/11/24 10:52:35;;;;;;;23.10;12.95;;;;;;;7.41;100.00;98409.00;4900079;29;20080;-82
2021/11/24 10:55:11;;;;;;;22.55;11.55;;;;;;;7.44;100.00;98402.25;4915480;29;20036;-82
2021/11/24 10:57:41;;;;;;;19.10;10.55;;;;;;;7.52;100.00;98401.69;4914994;29;20044;-82
2021/11/24 11:00:17;;;;;;;21.70;11.65;;;;;;;7.47;100.00;98389.03;4916246;29;20119;-83
2021/11/24 11:02:46;;;;;;;20.52;11.00;;;;;;;7.60;100.00;98387.63;4917033;29;20111;-81
2021/11/24 11:05:24;;;;;;;23.38;11.30;;;;;;;7.71;100.00;98375.72;4915994;29;20695;-81
2021/11/24 11:07:55;;;;;;;18.90;10.52;;;;;;;7.70;100.00;98370.59;4914158;29;20052;-82
2021/11/24 11:10:29;;;;;;;19.23;10.77;;;;;;;7.57;100.00;98372.00;4914233;29;20075;-81
2021/11/24 11:12:59;;;;;;;23.40;11.18;;;;;;;7.71;100.00;98369.53;4913243;29;20091;-82
2021/11/24 11:15:41;;;;;;;19.75;10.18;;;;;;;7.43;100.00;98352.94;4893127;29;20250;-83
2021/11/24 11:18:15;;;;;;;19.33;10.93;;;;;;;7.53;100.00;98358.31;4892741;29;20044;-81
2021/11/24 11:20:56;;;;;;;20.02;10.38;;;;;;;7.67;100.00;98363.06;4916562;29;20108;-81
2021/11/24 11:23:32;;;;;;;14.48;8.18;;;;;;;7.68;100.00;98365.50;4916741;29;20058;-82
2021/11/24 11:26:06;;;;;;;16.00;8.88;;;;;;;7.50;100.00;98352.66;4911517;29;20698;-80
2021/11/24 11:28:44;;;;;;;20.25;9.68;;;;;;;7.25;100.00;98344.72;4907595;29;20246;-82
2021/11/24 11:31:17;;;;;;;16.38;9.50;;;;;;;7.70;100.00;98343.66;4913663;29;20056;-82
2021/11/24 11:33:47;;;;;;;14.77;8.70;;;;;;;7.38;100.00;98355.66;4918614;29;20130;-81
2021/11/24 11:36:15;;;;;;;17.73;9.38;;;;;;;7.64;100.00;98355.56;4934293;29;20308;-83
2021/11/24 11:38:45;;;;;;;14.00;8.27;;;;;;;7.57;100.00;98333.47;4921041;29;20397;-82
2021/11/24 11:41:16;;;;;;;11.32;7.10;;;;;;;7.78;100.00;98334.97;4917836;29;20295;-84
2021/11/24 11:44:12;;;;;;;8.43;5.65;;;;;;;7.84;100.00;98329.28;4922813;29;20383;-86
2021/11/24 11:47:12;;;;;;;10.32;5.43;;;;;;;7.95;100.00;98333.50;4927515;29;20071;-82
2021/11/24 11:49:42;;;;;;;9.77;5.47;;;;;;;7.96;100.00;98335.13;4921915;29;20064;-83
2021/11/24 11:52:10;;;;;;;12.32;6.45;;;;;;;7.86;100.00;98320.91;5178200;23;20214;-83
2021/11/24 11:54:38;;;;;;;10.75;6.22;;;;;;;8.00;100.00;98317.28;4971816;28;20561;-82
2021/11/24 11:57:16;;;;;;;21.38;7.05;;;;;;;7.96;100.00;98310.06;4974202;28;20443;-83
2021/11/24 11:59:43;;;;;;;11.98;6.68;;;;;;;8.05;100.00;98314.56;4973533;28;20098;-84
2021/11/24 12:02:12;;;;;;;10.85;6.40;;;;;;;7.95;100.00;98311.13;4973526;28;20149;-84
2021/11/24 12:04:50;;;;;;;12.55;6.70;;;;;;;7.87;100.00;98315.22;4972380;28;20051;-85
2021/11/24 12:07:20;;;;;;;13.30;6.68;;;;;;;7.93;100.00;98297.13;4972715;28;20058;-84
2021/11/24 12:09:47;;;;;;;11.70;6.40;;;;;;;7.75;100.00;98303.19;4971842;28;20781;-84
2021/11/24 12:12:21;;;;;;;9.63;6.05;;;;;;;7.79;100.00;98296.97;4972703;28;20164;-84
2021/11/24 12:15:16;;;;;;;11.70;6.38;;;;;;;7.95;100.00;98297.66;4970853;28;20506;-82
2021/11/24 12:18:14;;;;;;;11.35;6.88;;;;;;;7.96;100.00;98280.41;4975758;28;20054;-84
2021/11/24 12:20:44;;;;;;;14.43;6.90;;;;;;;8.05;100.00;98284.13;4979195;28;20054;-83
2021/11/24 12:23:29;;;;;;;13.50;6.93;;;;;;;8.08;100.00;98278.94;4978567;28;20128;-84
2021/11/24 12:25:57;;;;;;;12.65;7.13;;;;;;;8.33;100.00;98252.88;4979930;28;20054;-84
2021/11/24 12:28:32;;;;;;;11.40;6.68;;;;;;;8.17;100.00;98268.38;4976924;28;20050;-86
2021/11/24 12:31:03;;;;;;;12.13;7.20;;;;;;;8.18;100.00;98259.19;4976776;28;20058;-85
2021/11/24 12:33:37;;;;;;;14.65;7.85;;;;;;;8.26;100.00;98260.47;4978692;28;20054;-83
2021/11/24 12:36:11;;;;;;;13.93;7.82;;;;;;;8.26;100.00;98263.16;4979216;28;20055;-85
2021/11/24 12:38:41;;;;;;;;;;;;;;;7.93;100.00;98262.09;4990296;28;20070;-85
2021/11/24 12:41:17;;;;;;;13.32;7.30;;;;;;;8.06;100.00;98272.22;4973104;28;19946;-83
2021/11/24 12:43:58;;;;;;;14.02;7.82;;;;;;;8.05;100.00;98251.75;4974476;28;20101;-84
2021/11/24 12:46:40;;;;;;;12.82;7.95;;;;;;;8.29;100.00;98251.81;4972726;28;20055;-84
2021/11/24 12:49:11;;;;;;;12.40;7.72;;;;;;;8.04;100.00;98242.84;4973176;28;20522;-84
2021/11/24 12:51:47;;;;;;;16.15;7.57;;;;;;;8.01;100.00;98240.72;4973165;28;20051;-86
2021/11/24 12:54:24;;;;;;;13.38;7.15;;;;;;;8.21;100.00;98247.03;4973227;28;20053;-83
2021/11/24 12:56:56;;;;;;;12.85;7.45;;;;;;;7.98;100.00;98233.19;4973224;28;20050;-84
2021/11/24 12:59:44;;;;;;;15.68;7.57;;;;;;;7.46;100.00;98225.78;4974720;28;20117;-84
2021/11/24 13:02:14;;;;;;;13.35;7.93;;;;;;;7.71;100.00;98230.19;4973289;28;20129;-85
2021/11/24 13:04:47;;;;;;;13.98;7.18;;;;;;;7.84;100.00;98212.56;4975543;28;20077;-86
2021/11/24 13:07:16;;;;;;;11.75;6.78;;;;;;;7.99;100.00;98218.63;4973062;28;20055;-84
2021/11/24 13:09:44;;;;;;;11.07;5.95;;;;;;;7.89;100.00;98199.06;4973660;28;20141;-85
2021/11/24 13:12:16;;;;;;;11.00;5.70;;;;;;;7.53;100.00;98212.84;4975553;28;20051;-84
2021/11/24 13:14:48;;;;;;;10.35;5.57;;;;;;;7.87;100.00;98209.31;4978969;28;20051;-84
2021/11/24 13:17:39;;;;;;;8.60;5.68;;;;;;;7.79;100.00;98199.97;4974960;28;20047;-83
2021/11/24 13:20:09;;;;;;;12.73;6.60;;;;;;;7.81;100.00;98202.34;4975108;28;20182;-83
2021/11/24 13:22:37;;;;;;;11.13;6.50;;;;;;;7.76;100.00;98197.81;4973672;28;20470;-84
2021/11/24 13:25:15;;;;;;;14.70;7.18;;;;;;;7.85;100.00;98200.69;4975204;28;20054;-84
2021/11/24 13:27:57;;;;;;;13.23;6.93;;;;;;;8.01;100.00;98194.88;4974690;28;20074;-83
2021/11/24 13:30:28;;;;;;;13.85;8.07;;;;;;;7.93;100.00;98194.69;4974604;28;20051;-82